Time;durP1;ratioP1;P1;durP2;ratioP2;P2;SDS_P1;SDS_P2;PMS_P1;PMS_P2;Temp;Humidity;BMP_temperature;BMP_pressure;BME280_temperature;BME280_humidity;BME280_pressure;Samples;Min_cycle;Max_cycle;Signal;HPM_P1;HPM_P2
2023/12/17 00:01:06;;;;;;;;;103.00;88.33;;;;;;;;5071335;28;45275;-72
2023/12/17 00:03:31;;;;;;;;;104.67;93.33;;;;;;;;5063439;28;45236;-73
2023/12/17 00:05:56;;;;;;;;;107.33;95.33;;;;;;;;5061481;28;45624;-73
2023/12/17 00:08:22;;;;;;;;;137.00;123.50;;;;;;;;5063220;28;45271;-73
2023/12/17 00:10:48;;;;;;;;;134.50;116.00;;;;;;;;5057772;28;45469;-73
2023/12/17 00:13:13;;;;;;;;;146.25;126.75;;;;;;;;5062343;28;45437;-72
2023/12/17 00:15:39;;;;;;;;;126.00;115.25;;;;;;;;5059397;28;45986;-72
2023/12/17 00:18:05;;;;;;;;;118.67;100.00;;;;;;;;5060594;28;45321;-72
2023/12/17 00:20:30;;;;;;;;;116.75;102.75;;;;;;;;5058092;28;45455;-74
2023/12/17 00:22:56;;;;;;;;;108.00;95.50;;;;;;;;5059721;28;47205;-73
2023/12/17 00:25:21;;;;;;;;;107.75;93.00;;;;;;;;5054437;28;45338;-73
2023/12/17 00:27:46;;;;;;;;;99.75;85.00;;;;;;;;5060222;28;45307;-73
2023/12/17 00:30:12;;;;;;;;;113.00;103.25;;;;;;;;5055894;28;45411;-73
2023/12/17 00:32:37;;;;;;;;;121.75;105.00;;;;;;;;5061127;28;45489;-73
2023/12/17 00:35:02;;;;;;;;;113.00;103.75;;;;;;;;5055747;28;46775;-73
2023/12/17 00:37:27;;;;;;;;;120.50;95.75;;;;;;;;5059579;28;45974;-73
2023/12/17 00:39:53;;;;;;;;;126.00;105.75;;;;;;;;5055168;28;45370;-74
2023/12/17 00:42:18;;;;;;;;;105.25;93.75;;;;;;;;5059173;28;46162;-74
2023/12/17 00:44:43;;;;;;;;;120.67;100.00;;;;;;;;5054419;28;46027;-73
2023/12/17 00:47:09;;;;;;;;;123.33;107.00;;;;;;;;5059685;28;45244;-73
2023/12/17 00:49:34;;;;;;;;;113.00;101.25;;;;;;;;5054240;28;45549;-73
2023/12/17 00:51:59;;;;;;;;;99.33;81.67;;;;;;;;5060720;28;45111;-73
2023/12/17 00:54:24;;;;;;;;;101.33;93.67;;;;;;;;5056410;28;46050;-74
2023/12/17 00:56:49;;;;;;;;;111.75;97.50;;;;;;;;5071789;28;45465;-73
2023/12/17 00:59:15;;;;;;;;;105.67;90.67;;;;;;;;5056845;28;45247;-73
2023/12/17 01:01:40;;;;;;;;;106.00;96.33;;;;;;;;5058190;28;45539;-74
2023/12/17 01:04:05;;;;;;;;;120.00;102.67;;;;;;;;5074093;28;47166;-74
2023/12/17 01:06:30;;;;;;;;;107.67;96.67;;;;;;;;5058892;28;45218;-73
2023/12/17 01:08:55;;;;;;;;;116.50;98.50;;;;;;;;5057475;28;45161;-73
2023/12/17 01:11:21;;;;;;;;;108.00;94.67;;;;;;;;5059968;28;45176;-74
2023/12/17 01:13:46;;;;;;;;;97.00;79.67;;;;;;;;5059960;28;46436;-73
2023/12/17 01:16:11;;;;;;;;;102.67;90.33;;;;;;;;5058694;28;45272;-73
2023/12/17 01:18:36;;;;;;;;;99.33;88.33;;;;;;;;5060382;28;44771;-74
2023/12/17 01:21:01;;;;;;;;;94.33;81.33;;;;;;;;5058323;28;45765;-74
2023/12/17 01:23:27;;;;;;;;;95.67;82.00;;;;;;;;5060533;28;46996;-73
2023/12/17 01:25:52;;;;;;;;;94.33;82.33;;;;;;;;5056824;28;45396;-74
2023/12/17 01:28:17;;;;;;;;;90.33;69.33;;;;;;;;5060592;28;45303;-73
2023/12/17 01:30:42;;;;;;;;;90.67;77.67;;;;;;;;5056090;28;45205;-73
2023/12/17 01:33:08;;;;;;;;;95.33;83.67;;;;;;;;5058257;28;47878;-73
2023/12/17 01:35:33;;;;;;;;;96.00;83.00;;;;;;;;5054937;28;44930;-73
2023/12/17 01:37:58;;;;;;;;;89.00;72.33;;;;;;;;5060121;28;44796;-73
2023/12/17 01:40:23;;;;;;;;;91.00;72.67;;;;;;;;5058657;28;45485;-73
2023/12/17 01:42:51;;;;;;;;;91.67;76.33;;;;;;;;5059707;28;46298;-73
2023/12/17 01:45:16;;;;;;;;;90.00;69.00;;;;;;;;5055992;28;45486;-73
2023/12/17 01:47:41;;;;;;;;;91.33;69.33;;;;;;;;5060092;28;44800;-73
2023/12/17 01:50:07;;;;;;;;;92.00;73.33;;;;;;;;5056938;28;45541;-73
2023/12/17 01:52:32;;;;;;;;;92.33;74.67;;;;;;;;5060047;28;46380;-73
2023/12/17 01:54:57;;;;;;;;;97.67;83.67;;;;;;;;5054695;28;45480;-74
2023/12/17 01:57:23;;;;;;;;;90.67;75.33;;;;;;;;5059526;28;45395;-73
2023/12/17 01:59:48;;;;;;;;;92.67;78.00;;;;;;;;5054366;28;45352;-74
2023/12/17 02:02:15;;;;;;;;;90.00;76.00;;;;;;;;5059858;28;45298;-74
2023/12/17 02:04:41;;;;;;;;;96.00;73.67;;;;;;;;5052648;28;45379;-74
2023/12/17 02:07:06;;;;;;;;;92.33;78.00;;;;;;;;5056992;28;45397;-74
2023/12/17 02:09:31;;;;;;;;;91.33;75.67;;;;;;;;5056107;28;45301;-73
2023/12/17 02:11:56;;;;;;;;;96.00;81.33;;;;;;;;5056274;28;46671;-74
2023/12/17 02:14:21;;;;;;;;;96.67;81.00;;;;;;;;5057593;28;45331;-74
2023/12/17 02:16:46;;;;;;;;;91.33;73.33;;;;;;;;5059681;28;45294;-73
2023/12/17 02:19:12;;;;;;;;;93.00;77.67;;;;;;;;5057134;28;45285;-73
2023/12/17 02:21:37;;;;;;;;;97.33;81.33;;;;;;;;5059304;28;45216;-73
2023/12/17 02:24:02;;;;;;;;;88.00;70.00;;;;;;;;5058234;28;45528;-74
2023/12/17 02:26:27;;;;;;;;;91.33;74.00;;;;;;;;5059234;28;45307;-73
2023/12/17 02:28:53;;;;;;;;;96.67;83.33;;;;;;;;5057115;28;45607;-73
2023/12/17 02:31:18;;;;;;;;;87.00;67.33;;;;;;;;5057173;28;45216;-73
2023/12/17 02:33:43;;;;;;;;;92.67;73.67;;;;;;;;5062223;28;45366;-73
2023/12/17 02:36:08;;;;;;;;;92.33;73.00;;;;;;;;5052663;28;45481;-73
2023/12/17 02:38:33;;;;;;;;;91.33;72.67;;;;;;;;5059597;28;45428;-73
2023/12/17 02:40:59;;;;;;;;;91.67;76.33;;;;;;;;5054075;28;45421;-74
2023/12/17 02:43:24;;;;;;;;;92.00;69.33;;;;;;;;5059875;28;45299;-74
2023/12/17 02:45:49;;;;;;;;;84.00;63.00;;;;;;;;5053622;28;45403;-73
2023/12/17 02:48:14;;;;;;;;;87.00;71.00;;;;;;;;5057727;28;45433;-73
2023/12/17 02:50:39;;;;;;;;;89.67;69.00;;;;;;;;5053433;28;45355;-74
2023/12/17 02:53:05;;;;;;;;;86.33;66.67;;;;;;;;5058043;28;45330;-74
2023/12/17 02:55:30;;;;;;;;;87.00;67.00;;;;;;;;5049860;28;45310;-74
2023/12/17 02:57:55;;;;;;;;;89.33;66.00;;;;;;;;5057884;28;45895;-74
2023/12/17 03:00:20;;;;;;;;;87.33;68.33;;;;;;;;5055163;28;45454;-71
2023/12/17 03:02:45;;;;;;;;;86.67;66.00;;;;;;;;5056944;28;45392;-74
2023/12/17 03:05:11;;;;;;;;;87.00;66.00;;;;;;;;5056657;28;45324;-72
2023/12/17 03:07:36;;;;;;;;;84.67;64.67;;;;;;;;5057954;28;45271;-72
2023/12/17 03:10:02;;;;;;;;;87.00;64.67;;;;;;;;5056793;28;46308;-73
2023/12/17 03:12:27;;;;;;;;;82.67;63.00;;;;;;;;5058842;28;45291;-73
2023/12/17 03:14:52;;;;;;;;;85.00;65.33;;;;;;;;5055789;28;45458;-75
2023/12/17 03:17:17;;;;;;;;;87.00;65.33;;;;;;;;5050410;28;46544;-73
2023/12/17 03:19:42;;;;;;;;;78.67;61.00;;;;;;;;5056213;28;46945;-72
2023/12/17 03:22:08;;;;;;;;;87.33;66.00;;;;;;;;5051608;28;45429;-73
2023/12/17 03:24:33;;;;;;;;;79.33;63.33;;;;;;;;5054777;28;45244;-74
2023/12/17 03:26:58;;;;;;;;;81.33;62.33;;;;;;;;5057142;28;45300;-73
2023/12/17 03:29:23;;;;;;;;;80.67;63.33;;;;;;;;5055273;28;45218;-74
2023/12/17 03:31:49;;;;;;;;;81.00;64.00;;;;;;;;5057370;28;46449;-73
2023/12/17 03:34:14;;;;;;;;;81.67;65.33;;;;;;;;5055918;28;45172;-76
2023/12/17 03:36:39;;;;;;;;;77.33;62.33;;;;;;;;5054339;28;45425;-74
2023/12/17 03:39:05;;;;;;;;;81.33;63.00;;;;;;;;5055257;28;45196;-74
2023/12/17 03:41:30;;;;;;;;;79.00;59.00;;;;;;;;5055180;28;45183;-74
2023/12/17 03:43:56;;;;;;;;;77.67;60.00;;;;;;;;5056773;28;45343;-74
2023/12/17 03:46:23;;;;;;;;;84.33;63.33;;;;;;;;5053631;28;45552;-73
2023/12/17 03:48:49;;;;;;;;;76.00;58.67;;;;;;;;5055706;28;47039;-73
2023/12/17 03:51:14;;;;;;;;;80.33;61.33;;;;;;;;5053192;28;45235;-73
2023/12/17 03:53:39;;;;;;;;;79.00;63.00;;;;;;;;5058304;28;45276;-73
2023/12/17 03:56:08;;;;;;;;;80.00;57.33;;;;;;;;5048491;28;45746;-73
2023/12/17 03:58:34;;;;;;;;;79.00;60.00;;;;;;;;5057860;28;45384;-73
2023/12/17 04:00:59;;;;;;;;;83.67;62.00;;;;;;;;5053288;28;45349;-73
2023/12/17 04:03:25;;;;;;;;;77.00;60.00;;;;;;;;5058086;28;45312;-74
2023/12/17 04:05:50;;;;;;;;;78.67;59.33;;;;;;;;5055538;28;45409;-73
2023/12/17 04:08:15;;;;;;;;;79.00;61.67;;;;;;;;5055250;28;45382;-73
2023/12/17 04:10:40;;;;;;;;;78.33;60.00;;;;;;;;5056172;28;45346;-73
2023/12/17 04:13:05;;;;;;;;;79.00;62.00;;;;;;;;5058156;28;45276;-73
2023/12/17 04:15:31;;;;;;;;;74.00;57.33;;;;;;;;5055975;28;44741;-73
2023/12/17 04:17:56;;;;;;;;;74.00;58.33;;;;;;;;5057594;28;45223;-73
2023/12/17 04:20:21;;;;;;;;;77.33;61.00;;;;;;;;5051753;28;45323;-74
2023/12/17 04:22:46;;;;;;;;;80.67;61.00;;;;;;;;5058185;28;45220;-74
2023/12/17 04:25:12;;;;;;;;;76.67;59.67;;;;;;;;5052608;28;45869;-74
2023/12/17 04:27:37;;;;;;;;;74.33;58.00;;;;;;;;5059867;28;45536;-73
2023/12/17 04:30:02;;;;;;;;;71.67;55.33;;;;;;;;5056338;28;45288;-73
2023/12/17 04:32:27;;;;;;;;;73.00;56.33;;;;;;;;5059067;28;45240;-73
2023/12/17 04:34:55;;;;;;;;;74.67;60.00;;;;;;;;5054371;28;45164;-74
2023/12/17 04:37:21;;;;;;;;;68.33;54.00;;;;;;;;5052204;28;45521;-73
2023/12/17 04:39:46;;;;;;;;;75.00;57.67;;;;;;;;5053601;28;45413;-74
2023/12/17 04:42:11;;;;;;;;;73.33;55.00;;;;;;;;5059392;28;45252;-73
2023/12/17 04:44:36;;;;;;;;;66.00;55.00;;;;;;;;5058452;28;45473;-73
2023/12/17 04:47:02;;;;;;;;;68.00;53.00;;;;;;;;5059121;28;46694;-74
2023/12/17 04:49:27;;;;;;;;;65.33;52.00;;;;;;;;5056976;28;45349;-73
2023/12/17 04:51:52;;;;;;;;;63.50;50.00;;;;;;;;5052981;28;45336;-74
2023/12/17 04:54:17;;;;;;;;;61.00;49.50;;;;;;;;5056735;28;45276;-74
2023/12/17 04:56:42;;;;;;;;;63.00;51.25;;;;;;;;5053791;28;45315;-74
2023/12/17 04:59:08;;;;;;;;;78.33;60.33;;;;;;;;5057654;28;45300;-73
2023/12/17 05:01:33;;;;;;;;;65.00;53.00;;;;;;;;5055909;28;45329;-73
2023/12/17 05:03:58;;;;;;;;;68.00;54.33;;;;;;;;5056828;28;45359;-74
2023/12/17 05:06:23;;;;;;;;;72.33;55.33;;;;;;;;5057897;28;45236;-74
2023/12/17 05:08:49;;;;;;;;;67.00;50.33;;;;;;;;5059708;28;45268;-74
2023/12/17 05:11:14;;;;;;;;;63.25;51.00;;;;;;;;5481699;22;45498;-70
2023/12/17 05:13:39;;;;;;;;;51.25;40.75;;;;;;;;5012764;28;47320;-70
2023/12/17 05:16:05;;;;;;;;;58.75;45.25;;;;;;;;5005669;28;45327;-70
2023/12/17 05:18:30;;;;;;;;;58.75;43.25;;;;;;;;5000160;28;45395;-71
2023/12/17 05:20:55;;;;;;;;;44.25;40.50;;;;;;;;4999132;28;45336;-71
2023/12/17 05:23:20;;;;;;;;;71.00;56.67;;;;;;;;5000307;28;45416;-70
2023/12/17 05:25:45;;;;;;;;;86.67;66.67;;;;;;;;4998602;28;45640;-70
2023/12/17 05:28:11;;;;;;;;;82.67;62.67;;;;;;;;4999688;28;45496;-70
2023/12/17 05:30:37;;;;;;;;;91.33;66.33;;;;;;;;4999128;28;45789;-70
2023/12/17 05:33:02;;;;;;;;;105.00;83.67;;;;;;;;5000702;28;45285;-70
2023/12/17 05:35:28;;;;;;;;;65.25;49.25;;;;;;;;4996802;28;45453;-69
2023/12/17 05:37:53;;;;;;;;;79.33;61.00;;;;;;;;4999689;28;45319;-70
2023/12/17 05:40:18;;;;;;;;;136.00;109.00;;;;;;;;4999170;28;44658;-70
2023/12/17 05:42:43;;;;;;;;;111.33;87.67;;;;;;;;4996661;28;45470;-69
2023/12/17 05:45:09;;;;;;;;;90.67;71.33;;;;;;;;4999275;28;45286;-70
2023/12/17 05:47:34;;;;;;;;;47.25;41.00;;;;;;;;4998823;28;45299;-70
2023/12/17 05:50:00;;;;;;;;;56.00;45.00;;;;;;;;4999615;28;44818;-70
2023/12/17 05:52:25;;;;;;;;;47.50;40.75;;;;;;;;4998325;28;45246;-70
2023/12/17 05:54:50;;;;;;;;;40.75;37.00;;;;;;;;5000614;28;45363;-70
2023/12/17 05:57:15;;;;;;;;;40.00;36.00;;;;;;;;4997921;28;45446;-71
2023/12/17 05:59:40;;;;;;;;;43.50;38.00;;;;;;;;4999829;28;45316;-70
2023/12/17 06:02:06;;;;;;;;;31.00;29.75;;;;;;;;4998390;28;45330;-70
2023/12/17 06:04:31;;;;;;;;;41.25;36.75;;;;;;;;5000018;28;45273;-71
2023/12/17 06:06:57;;;;;;;;;52.25;41.75;;;;;;;;4997145;28;45740;-71
2023/12/17 06:09:23;;;;;;;;;49.50;39.75;;;;;;;;5000451;28;45220;-70
2023/12/17 06:11:48;;;;;;;;;53.50;41.00;;;;;;;;5006564;28;45208;-70
2023/12/17 06:14:13;;;;;;;;;47.75;39.50;;;;;;;;5010496;28;47867;-70
2023/12/17 06:16:42;;;;;;;;;39.25;31.50;;;;;;;;5016097;28;45320;-71
2023/12/17 06:19:07;;;;;;;;;46.00;40.50;;;;;;;;5018986;28;45431;-70
2023/12/17 06:21:32;;;;;;;;;41.00;35.75;;;;;;;;5019765;28;46483;-70
2023/12/17 06:23:58;;;;;;;;;37.00;34.50;;;;;;;;5019765;28;45694;-70
2023/12/17 06:26:26;;;;;;;;;37.50;32.50;;;;;;;;5015113;28;45434;-70
2023/12/17 06:28:51;;;;;;;;;45.25;39.00;;;;;;;;5018268;28;45435;-70
2023/12/17 06:31:17;;;;;;;;;53.50;40.25;;;;;;;;5017553;28;45496;-70
2023/12/17 06:33:42;;;;;;;;;40.75;33.50;;;;;;;;5019508;28;45257;-70
2023/12/17 06:36:08;;;;;;;;;44.50;38.25;;;;;;;;5014139;28;46480;-70
2023/12/17 06:38:33;;;;;;;;;52.50;41.00;;;;;;;;5018753;28;44933;-70
2023/12/17 06:40:58;;;;;;;;;48.25;42.25;;;;;;;;5000909;28;46062;-70
2023/12/17 06:43:23;;;;;;;;;50.50;43.00;;;;;;;;5019455;28;46705;-70
2023/12/17 06:45:48;;;;;;;;;4.50;1.00;;;;;;;;5014883;28;45269;-69
2023/12/17 06:48:13;;;;;;;;;52.50;42.00;;;;;;;;5019598;28;45342;-70
2023/12/17 06:50:39;;;;;;;;;48.00;39.00;;;;;;;;5015959;28;45518;-69
2023/12/17 06:53:04;;;;;;;;;47.50;42.00;;;;;;;;5016406;28;46128;-71
2023/12/17 06:55:29;;;;;;;;;37.50;34.25;;;;;;;;5016738;28;45213;-70
2023/12/17 06:57:54;;;;;;;;;36.50;33.50;;;;;;;;5018454;28;45130;-71
2023/12/17 07:00:19;;;;;;;;;33.00;26.50;;;;;;;;5017382;28;46302;-71
2023/12/17 07:02:45;;;;;;;;;39.75;32.25;;;;;;;;5015188;28;45562;-70
2023/12/17 07:05:11;;;;;;;;;33.25;26.50;;;;;;;;5015903;28;45274;-71
2023/12/17 07:07:36;;;;;;;;;32.00;27.25;;;;;;;;5012041;28;45427;-70
2023/12/17 07:10:01;;;;;;;;;39.00;31.75;;;;;;;;5017316;28;45203;-70
2023/12/17 07:12:26;;;;;;;;;30.75;23.00;;;;;;;;5012179;28;45320;-70
2023/12/17 07:14:52;;;;;;;;;35.25;31.25;;;;;;;;5019275;28;45430;-70
2023/12/17 07:17:17;;;;;;;;;31.25;25.50;;;;;;;;5010791;28;45459;-70
2023/12/17 07:19:42;;;;;;;;;41.75;37.50;;;;;;;;5018604;28;45321;-69
2023/12/17 07:22:07;;;;;;;;;49.75;40.25;;;;;;;;5014365;28;46202;-69
2023/12/17 07:24:33;;;;;;;;;41.50;36.75;;;;;;;;5019169;28;45344;-69
2023/12/17 07:26:58;;;;;;;;;49.50;42.00;;;;;;;;5014323;28;45244;-70
2023/12/17 07:29:23;;;;;;;;;46.25;38.75;;;;;;;;5018813;28;45583;-70
2023/12/17 07:31:48;;;;;;;;;42.50;37.50;;;;;;;;5014968;28;45387;-71
2023/12/17 07:34:14;;;;;;;;;45.25;39.00;;;;;;;;5015287;28;45399;-68
2023/12/17 07:36:39;;;;;;;;;41.25;30.50;;;;;;;;5014458;28;45325;-69
2023/12/17 07:39:05;;;;;;;;;46.75;36.50;;;;;;;;5015960;28;44753;-70
2023/12/17 07:41:30;;;;;;;;;39.00;37.00;;;;;;;;5015250;28;45496;-69
2023/12/17 07:43:55;;;;;;;;;41.25;33.50;;;;;;;;5018984;28;45324;-70
2023/12/17 07:46:20;;;;;;;;;35.75;30.25;;;;;;;;5015451;28;45580;-71
2023/12/17 07:48:45;;;;;;;;;33.75;31.00;;;;;;;;5017360;28;46211;-71
2023/12/17 07:51:11;;;;;;;;;35.00;30.50;;;;;;;;5014991;28;45288;-71
2023/12/17 07:53:36;;;;;;;;;45.75;37.25;;;;;;;;5013644;28;45348;-71
2023/12/17 07:56:01;;;;;;;;;42.00;37.50;;;;;;;;5016395;28;45400;-71
2023/12/17 07:58:28;;;;;;;;;39.50;32.25;;;;;;;;5013460;28;45384;-71
2023/12/17 08:00:53;;;;;;;;;38.75;34.75;;;;;;;;5013606;28;45225;-71
2023/12/17 08:03:22;;;;;;;;;42.75;34.25;;;;;;;;5020909;28;45184;-71
2023/12/17 08:05:47;;;;;;;;;38.75;33.75;;;;;;;;5016821;28;45535;-71
2023/12/17 08:08:12;;;;;;;;;32.75;28.25;;;;;;;;5021012;28;45261;-71
2023/12/17 08:10:38;;;;;;;;;30.50;27.75;;;;;;;;5016659;28;47634;-71
2023/12/17 08:13:03;;;;;;;;;31.75;28.00;;;;;;;;5003602;28;45360;-70
2023/12/17 08:15:28;;;;;;;;;35.50;29.75;;;;;;;;5019555;28;45316;-70
2023/12/17 08:17:53;;;;;;;;;36.75;33.00;;;;;;;;5011550;28;46049;-71
2023/12/17 08:20:18;;;;;;;;;36.75;36.25;;;;;;;;5019173;28;46699;-71
2023/12/17 08:22:44;;;;;;;;;35.75;30.25;;;;;;;;5019317;28;45431;-70
2023/12/17 08:25:09;;;;;;;;;33.75;28.00;;;;;;;;5019808;28;45820;-70
2023/12/17 08:27:34;;;;;;;;;37.25;35.50;;;;;;;;5016867;28;45400;-70
2023/12/17 08:29:59;;;;;;;;;38.75;32.25;;;;;;;;5020493;28;45338;-70
2023/12/17 08:32:31;;;;;;;;;38.25;32.50;;;;;;;;5013875;28;45428;-70
2023/12/17 08:34:57;;;;;;;;;33.75;31.75;;;;;;;;5020376;28;45301;-70
2023/12/17 08:37:24;;;;;;;;;35.25;29.25;;;;;;;;5016166;28;45372;-70
2023/12/17 08:39:49;;;;;;;;;41.00;34.25;;;;;;;;5003057;28;47354;-70
2023/12/17 08:42:14;;;;;;;;;34.75;30.75;;;;;;;;5016513;28;45507;-70
2023/12/17 08:44:39;;;;;;;;;37.75;34.00;;;;;;;;5003650;28;45453;-70
2023/12/17 08:47:04;;;;;;;;;37.50;31.25;;;;;;;;5019153;28;45407;-70
2023/12/17 08:49:29;;;;;;;;;33.50;29.00;;;;;;;;5019825;28;46777;-72
2023/12/17 08:51:55;;;;;;;;;35.50;32.00;;;;;;;;5011497;28;45304;-70
2023/12/17 08:54:20;;;;;;;;;35.75;33.25;;;;;;;;5020944;28;45490;-71
2023/12/17 08:56:45;;;;;;;;;37.00;32.75;;;;;;;;5012399;28;45451;-71
2023/12/17 08:59:10;;;;;;;;;33.50;32.75;;;;;;;;5020669;28;45189;-71
2023/12/17 09:01:36;;;;;;;;;32.50;29.75;;;;;;;;5015410;28;45456;-69
2023/12/17 09:04:01;;;;;;;;;37.25;30.00;;;;;;;;5020756;28;45356;-71
2023/12/17 09:06:26;;;;;;;;;36.50;33.00;;;;;;;;5016262;28;45148;-72
2023/12/17 09:08:52;;;;;;;;;33.50;27.00;;;;;;;;5019269;28;45340;-71
2023/12/17 09:11:17;;;;;;;;;23.50;19.50;;;;;;;;5015632;28;45441;-71
2023/12/17 09:13:42;;;;;;;;;47.00;30.75;;;;;;;;5020725;28;45401;-71
2023/12/17 09:16:07;;;;;;;;;70.25;52.75;;;;;;;;5016733;28;45460;-71
2023/12/17 09:18:32;;;;;;;;;42.75;34.75;;;;;;;;5018046;28;45399;-70
2023/12/17 09:20:58;;;;;;;;;71.00;55.00;;;;;;;;5016030;28;45568;-71
2023/12/17 09:23:23;;;;;;;;;43.00;35.75;;;;;;;;5015447;28;45401;-70
2023/12/17 09:25:48;;;;;;;;;39.00;30.00;;;;;;;;5016992;28;45466;-71
2023/12/17 09:28:13;;;;;;;;;37.00;33.00;;;;;;;;5016097;28;45418;-71
2023/12/17 09:30:38;;;;;;;;;29.50;28.25;;;;;;;;5016823;28;44782;-71
2023/12/17 09:33:04;;;;;;;;;47.25;40.00;;;;;;;;5020211;28;45609;-71
2023/12/17 09:35:29;;;;;;;;;56.00;47.25;;;;;;;;5018505;28;45269;-71
2023/12/17 09:37:54;;;;;;;;;37.25;25.50;;;;;;;;5007666;28;46699;-70
2023/12/17 09:40:19;;;;;;;;;30.25;27.50;;;;;;;;5016120;28;45556;-71
2023/12/17 09:42:45;;;;;;;;;57.00;45.50;;;;;;;;5019701;28;45414;-71
2023/12/17 09:45:14;;;;;;;;;64.67;52.67;;;;;;;;5019401;28;45184;-71
2023/12/17 09:47:41;;;;;;;;;57.75;41.00;;;;;;;;5007362;28;47470;-71
2023/12/17 09:50:08;;;;;;;;;36.50;30.50;;;;;;;;5019137;28;45566;-71
2023/12/17 09:52:36;;;;;;;;;46.75;37.00;;;;;;;;5000668;28;45433;-71
2023/12/17 09:55:03;;;;;;;;;48.00;38.75;;;;;;;;5019873;28;45410;-71
2023/12/17 09:57:29;;;;;;;;;46.75;37.75;;;;;;;;5014458;28;45389;-70
2023/12/17 09:59:54;;;;;;;;;42.25;37.00;;;;;;;;5019749;28;45319;-71
2023/12/17 10:02:19;;;;;;;;;35.25;27.75;;;;;;;;5013924;28;44704;-71
2023/12/17 10:04:44;;;;;;;;;33.00;23.75;;;;;;;;5019809;28;45589;-71
2023/12/17 10:07:09;;;;;;;;;63.75;49.00;;;;;;;;5013589;28;45619;-71
2023/12/17 10:09:35;;;;;;;;;58.00;43.75;;;;;;;;5019869;28;45285;-71
2023/12/17 10:12:01;;;;;;;;;58.50;47.25;;;;;;;;5016944;28;45401;-71
2023/12/17 10:14:30;;;;;;;;;80.33;64.67;;;;;;;;5019659;28;45403;-71
2023/12/17 10:16:55;;;;;;;;;35.75;27.50;;;;;;;;5016329;28;45478;-70
2023/12/17 10:19:20;;;;;;;;;34.50;31.00;;;;;;;;5015217;28;46204;-70
2023/12/17 10:21:45;;;;;;;;;38.25;34.50;;;;;;;;5019439;28;45230;-71
2023/12/17 10:24:11;;;;;;;;;43.25;35.75;;;;;;;;5016839;28;45361;-73
2023/12/17 10:26:43;;;;;;;;;43.75;36.00;;;;;;;;5000655;28;46326;-71
2023/12/17 10:29:12;;;;;;;;;38.00;35.75;;;;;;;;5015401;28;45517;-70
2023/12/17 10:31:37;;;;;;;;;65.75;51.75;;;;;;;;5016062;28;45187;-70
2023/12/17 10:34:08;;;;;;;;;25.00;24.25;;;;;;;;5015940;28;45324;-70
2023/12/17 10:36:34;;;;;;;;;35.50;33.75;;;;;;;;5017719;28;45395;-70
2023/12/17 10:39:00;;;;;;;;;32.75;26.00;;;;;;;;5016682;28;45303;-69
2023/12/17 10:41:27;;;;;;;;;33.00;25.00;;;;;;;;5017049;28;45203;-70
2023/12/17 10:43:53;;;;;;;;;32.25;24.50;;;;;;;;4999256;28;46026;-70
2023/12/17 10:46:19;;;;;;;;;25.00;22.50;;;;;;;;5013921;28;45415;-70
2023/12/17 10:48:44;;;;;;;;;33.50;30.00;;;;;;;;5004942;28;45273;-70
2023/12/17 10:51:10;;;;;;;;;38.00;35.00;;;;;;;;5019107;28;45249;-70
2023/12/17 10:53:35;;;;;;;;;38.50;27.50;;;;;;;;5010136;28;45441;-70
2023/12/17 10:56:01;;;;;;;;;56.25;41.00;;;;;;;;5015419;28;45381;-69
2023/12/17 10:58:26;;;;;;;;;32.75;30.50;;;;;;;;5018564;28;45455;-71
2023/12/17 11:00:52;;;;;;;;;52.00;41.00;;;;;;;;5014329;28;45383;-71
2023/12/17 11:03:17;;;;;;;;;34.25;29.75;;;;;;;;5019433;28;44794;-71
2023/12/17 11:05:53;;;;;;;;;99.00;88.00;;;;;;;;5015882;28;46493;-71
2023/12/17 11:08:21;;;;;;;;;48.25;38.75;;;;;;;;5019127;28;45269;-71
2023/12/17 11:10:46;;;;;;;;;44.00;36.75;;;;;;;;5014723;28;45524;-72
2023/12/17 11:13:13;;;;;;;;;36.00;34.25;;;;;;;;5010067;28;45268;-71
2023/12/17 11:15:38;;;;;;;;;42.00;33.50;;;;;;;;5000511;28;47694;-71
2023/12/17 11:18:03;;;;;;;;;68.75;53.75;;;;;;;;5019020;28;45314;-71
2023/12/17 11:20:35;;;;;;;;;45.00;38.50;;;;;;;;5017471;28;45399;-71
2023/12/17 11:23:01;;;;;;;;;50.00;42.50;;;;;;;;5014023;28;45471;-72
2023/12/17 11:25:30;;;;;;;;;54.25;41.25;;;;;;;;5016709;28;45167;-72
2023/12/17 11:27:55;;;;;;;;;63.50;49.25;;;;;;;;5014584;28;45688;-72
2023/12/17 11:30:27;;;;;;;;;71.00;53.25;;;;;;;;5016992;28;45314;-71
2023/12/17 11:32:52;;;;;;;;;41.00;34.25;;;;;;;;5018805;28;45255;-72
2023/12/17 11:35:18;;;;;;;;;40.75;34.75;;;;;;;;5017403;28;45606;-72
2023/12/17 11:37:43;;;;;;;;;28.00;24.50;;;;;;;;5022331;28;45320;-72
2023/12/17 11:40:09;;;;;;;;;42.50;31.50;;;;;;;;5020740;28;45352;-72
2023/12/17 11:42:40;;;;;;;;;24.75;23.75;;;;;;;;5018158;28;45446;-71
2023/12/17 11:45:05;;;;;;;;;38.25;32.50;;;;;;;;5021951;28;45256;-72
2023/12/17 11:47:31;;;;;;;;;39.25;33.75;;;;;;;;5020221;28;45340;-70
2023/12/17 11:49:57;;;;;;;;;31.75;30.00;;;;;;;;5022271;28;45369;-72
2023/12/17 11:52:22;;;;;;;;;33.00;30.00;;;;;;;;5020066;28;45292;-71
2023/12/17 11:54:56;;;;;;;;;28.75;23.00;;;;;;;;5022237;28;45296;-70
2023/12/17 11:57:22;;;;;;;;;35.50;31.25;;;;;;;;5019868;28;44712;-70
2023/12/17 11:59:48;;;;;;;;;31.75;29.00;;;;;;;;5022401;28;45728;-68
2023/12/17 12:02:14;;;;;;;;;56.50;43.50;;;;;;;;5019922;28;45522;-70
2023/12/17 12:04:43;;;;;;;;;39.75;34.50;;;;;;;;5019689;28;46382;-70
2023/12/17 12:07:08;;;;;;;;;32.50;31.75;;;;;;;;5019212;28;45178;-70
2023/12/17 12:09:34;;;;;;;;;34.50;24.75;;;;;;;;5021898;28;45433;-70
2023/12/17 12:11:59;;;;;;;;;39.75;35.75;;;;;;;;5001695;28;46290;-70
2023/12/17 12:14:25;;;;;;;;;67.00;48.25;;;;;;;;5020184;28;45278;-69
2023/12/17 12:16:51;;;;;;;;;32.00;28.00;;;;;;;;5019786;28;45273;-70
2023/12/17 12:19:16;;;;;;;;;35.00;31.25;;;;;;;;5011945;28;45437;-70
2023/12/17 12:21:42;;;;;;;;;35.75;30.75;;;;;;;;5020607;28;45183;-70
2023/12/17 12:24:10;;;;;;;;;30.75;30.75;;;;;;;;5016368;28;45332;-70
2023/12/17 12:26:36;;;;;;;;;33.00;24.25;;;;;;;;5020795;28;45447;-71
2023/12/17 12:29:03;;;;;;;;;33.75;28.25;;;;;;;;5014474;28;45292;-71
2023/12/17 12:31:29;;;;;;;;;39.00;34.25;;;;;;;;5019296;28;45526;-71
2023/12/17 12:33:55;;;;;;;;;30.50;25.50;;;;;;;;5014171;28;46545;-72
2023/12/17 12:36:20;;;;;;;;;38.50;31.25;;;;;;;;5021103;28;45165;-72
2023/12/17 12:38:57;;;;;;;;;28.25;25.50;;;;;;;;5018951;28;45390;-73
2023/12/17 12:41:23;;;;;;;;;51.25;36.50;;;;;;;;5020284;28;45271;-71
2023/12/17 12:43:51;;;;;;;;;23.75;18.50;;;;;;;;5018017;28;46132;-71
2023/12/17 12:46:17;;;;;;;;;34.00;30.75;;;;;;;;5021047;28;45301;-71
2023/12/17 12:48:42;;;;;;;;;41.75;34.75;;;;;;;;5016575;28;45235;-70
2023/12/17 12:51:07;;;;;;;;;42.25;34.00;;;;;;;;5020399;28;45336;-71
2023/12/17 12:53:32;;;;;;;;;52.00;41.50;;;;;;;;5018457;28;46364;-70
2023/12/17 12:55:58;;;;;;;;;57.25;46.50;;;;;;;;5019909;28;45296;-71
2023/12/17 12:58:23;;;;;;;;;46.50;35.00;;;;;;;;5011437;28;45268;-71
2023/12/17 13:00:49;;;;;;;;;42.25;34.75;;;;;;;;5018248;28;45265;-71
2023/12/17 13:03:14;;;;;;;;;36.00;33.25;;;;;;;;5013792;28;46255;-72
2023/12/17 13:05:40;;;;;;;;;37.75;32.25;;;;;;;;5018484;28;45401;-71
2023/12/17 13:08:06;;;;;;;;;37.75;30.50;;;;;;;;5012027;28;45236;-72
2023/12/17 13:10:31;;;;;;;;;37.25;32.50;;;;;;;;5001043;28;45978;-71
2023/12/17 13:12:57;;;;;;;;;45.75;35.75;;;;;;;;5014143;28;45194;-70
2023/12/17 13:15:22;;;;;;;;;40.50;34.25;;;;;;;;5010496;28;45416;-70
2023/12/17 13:17:47;;;;;;;;;38.50;33.50;;;;;;;;5014322;28;45201;-71
2023/12/17 13:20:13;;;;;;;;;45.75;35.75;;;;;;;;5019131;28;44813;-71
2023/12/17 13:22:38;;;;;;;;;49.75;40.75;;;;;;;;5014629;28;46404;-71
2023/12/17 13:25:03;;;;;;;;;40.50;36.75;;;;;;;;5009743;28;45308;-71
2023/12/17 13:27:29;;;;;;;;;43.50;33.75;;;;;;;;5011346;28;45343;-71
2023/12/17 13:29:54;;;;;;;;;42.50;36.50;;;;;;;;5005490;28;45287;-72
2023/12/17 13:32:19;;;;;;;;;35.50;32.75;;;;;;;;5013308;28;45514;-70
2023/12/17 13:34:44;;;;;;;;;35.75;34.25;;;;;;;;5010515;28;45353;-70
2023/12/17 13:37:09;;;;;;;;;32.75;31.75;;;;;;;;5018430;28;44877;-71
2023/12/17 13:39:37;;;;;;;;;25.50;24.50;;;;;;;;5018194;28;45264;-71
2023/12/17 13:42:03;;;;;;;;;39.00;35.00;;;;;;;;5009746;28;45464;-72
2023/12/17 13:44:28;;;;;;;;;39.00;33.00;;;;;;;;5018354;28;45287;-72
2023/12/17 13:46:54;;;;;;;;;33.75;32.50;;;;;;;;5001138;28;46051;-71
2023/12/17 13:49:19;;;;;;;;;34.50;33.00;;;;;;;;5018900;28;45148;-72
2023/12/17 13:51:44;;;;;;;;;45.50;36.50;;;;;;;;5019536;28;45477;-72
2023/12/17 13:54:10;;;;;;;;;38.50;33.00;;;;;;;;5019270;28;45281;-72
2023/12/17 13:56:35;;;;;;;;;42.25;35.25;;;;;;;;5001962;28;45284;-72
2023/12/17 13:59:01;;;;;;;;;36.00;29.75;;;;;;;;5013496;28;45306;-72
2023/12/17 14:01:29;;;;;;;;;42.75;36.00;;;;;;;;5019606;28;45229;-72
2023/12/17 14:03:54;;;;;;;;;42.25;35.00;;;;;;;;5017882;28;45480;-71
2023/12/17 14:06:19;;;;;;;;;33.75;31.00;;;;;;;;5006894;28;45500;-72